createdAt,value
2023-04-12T00:00:24.755Z,9.50
2023-04-12T00:02:54.415Z,9.50
2023-04-12T00:05:23.116Z,9.50
2023-04-12T00:07:53.616Z,9.40
2023-04-12T00:10:21.692Z,9.40
2023-04-12T00:12:49.606Z,9.40
2023-04-12T00:15:16.745Z,9.30
2023-04-12T00:17:45.049Z,9.30
2023-04-12T00:20:12.875Z,9.30
2023-04-12T00:22:43.385Z,9.20
2023-04-12T00:25:10.930Z,9.10
2023-04-12T00:27:38.039Z,9.00
2023-04-12T00:30:07.553Z,9.00
2023-04-12T00:32:34.906Z,8.90
2023-04-12T00:35:02.077Z,8.90
2023-04-12T00:37:29.561Z,8.90
2023-04-12T00:39:56.661Z,8.80
2023-04-12T00:42:23.909Z,8.70
2023-04-12T00:44:51.051Z,8.70
2023-04-12T00:47:18.166Z,8.70
2023-04-12T00:49:46.250Z,8.60
2023-04-12T00:52:15.902Z,8.70
2023-04-12T00:54:43.964Z,8.70
2023-04-12T00:57:11.067Z,8.70
2023-04-12T00:59:38.247Z,8.60
2023-04-12T01:02:05.816Z,8.60
2023-04-12T01:04:34.759Z,8.50
2023-04-12T01:07:25.869Z,8.60
2023-04-12T01:10:13.292Z,8.50
2023-04-12T01:13:10.919Z,8.50
2023-04-12T01:15:44.395Z,8.40
2023-04-12T01:18:20.073Z,8.40
2023-04-12T01:20:57.969Z,8.30
2023-04-12T01:23:57.599Z,8.30
2023-04-12T01:26:41.766Z,8.30
2023-04-12T01:29:18.581Z,8.30
2023-04-12T01:32:02.323Z,8.40
2023-04-12T01:34:32.726Z,8.40
2023-04-12T01:37:02.876Z,8.30
2023-04-12T01:39:31.185Z,8.30
2023-04-12T01:41:58.422Z,8.30
2023-04-12T01:44:25.750Z,8.30
2023-04-12T01:46:54.129Z,8.30
2023-04-12T01:49:22.738Z,8.30
2023-04-12T01:52:02.238Z,8.30
2023-04-12T01:54:34.852Z,8.30
2023-04-12T01:57:05.576Z,8.20
2023-04-12T01:59:40.661Z,8.30
2023-04-12T02:02:09.016Z,8.20
2023-04-12T02:04:36.868Z,8.20
2023-04-12T02:07:04.877Z,8.10
2023-04-12T02:09:39.808Z,8.10
2023-04-12T02:12:07.977Z,8.20
2023-04-12T02:14:35.228Z,8.10
2023-04-12T02:17:02.666Z,8.20
2023-04-12T02:19:29.797Z,8.20
2023-04-12T02:21:56.905Z,8.10
2023-04-12T02:24:23.989Z,8.20
2023-04-12T02:26:53.743Z,8.20
2023-04-12T02:29:20.863Z,8.20
2023-04-12T02:31:48.528Z,8.20
2023-04-12T02:34:16.254Z,8.20
2023-04-12T02:36:50.720Z,8.30
2023-04-12T02:39:19.069Z,8.30
2023-04-12T02:41:46.400Z,8.20
2023-04-12T02:44:13.676Z,8.20
2023-04-12T02:46:40.772Z,8.30
2023-04-12T02:49:07.949Z,8.30
2023-04-12T02:51:35.616Z,8.30
2023-04-12T02:54:02.790Z,8.30
2023-04-12T02:56:30.094Z,8.30
2023-04-12T02:58:57.206Z,8.30
2023-04-12T03:01:24.744Z,8.30
2023-04-12T03:03:52.134Z,8.30
2023-04-12T03:06:19.249Z,8.40
2023-04-12T03:08:46.393Z,8.30
2023-04-12T03:11:23.508Z,8.30
2023-04-12T03:13:50.756Z,8.30
2023-04-12T03:16:26.274Z,8.30
2023-04-12T03:18:53.611Z,8.30
2023-04-12T03:21:20.879Z,8.30
2023-04-12T03:23:47.947Z,8.30
2023-04-12T03:26:15.094Z,8.30
2023-04-12T03:28:43.029Z,8.30
2023-04-12T03:31:10.922Z,8.30
2023-04-12T03:33:38.264Z,8.20
2023-04-12T03:36:06.834Z,8.20
2023-04-12T03:38:33.915Z,8.20
2023-04-12T03:41:00.997Z,8.20
2023-04-12T03:43:28.727Z,8.30
2023-04-12T05:04:56.582Z,7.80
2023-04-12T05:07:23.868Z,7.80
2023-04-12T05:09:50.992Z,7.80
2023-04-12T05:12:18.466Z,7.80
2023-04-12T05:14:48.033Z,7.80
2023-04-12T05:17:18.872Z,7.80
2023-04-12T05:19:45.976Z,7.80
2023-04-12T05:22:14.268Z,7.80
2023-04-12T05:24:41.364Z,7.80
2023-04-12T05:27:09.072Z,7.80
2023-04-12T05:29:36.145Z,7.80
2023-04-12T05:32:03.264Z,7.80
2023-04-12T05:34:30.695Z,7.80
2023-04-12T05:36:59.760Z,7.80
2023-04-12T05:39:28.012Z,7.70
2023-04-12T05:41:55.174Z,7.80
2023-04-12T05:44:22.563Z,7.80
2023-04-12T05:46:50.049Z,7.90
2023-04-12T05:49:17.263Z,7.90
2023-04-12T05:51:44.423Z,7.90
2023-04-12T05:54:11.586Z,7.90
2023-04-12T05:56:39.233Z,7.90
2023-04-12T05:59:06.850Z,7.90
2023-04-12T06:01:34.502Z,7.80
2023-04-12T06:04:06.322Z,7.80
2023-04-12T06:06:33.813Z,7.90
2023-04-12T06:09:01.321Z,7.80
2023-04-12T06:11:28.743Z,7.90
2023-04-12T06:13:55.852Z,7.90
2023-04-12T06:16:23.014Z,7.90
2023-04-12T06:18:50.780Z,7.90
2023-04-12T06:21:18.935Z,7.80
2023-04-12T06:23:46.083Z,7.80
2023-04-12T06:26:13.155Z,7.80
2023-04-12T06:28:40.526Z,7.80
2023-04-12T06:31:07.666Z,7.90
2023-04-12T06:33:36.819Z,7.80
2023-04-12T06:36:04.511Z,7.80
2023-04-12T06:38:31.704Z,7.80
2023-04-12T06:40:58.809Z,7.80
2023-04-12T06:43:25.920Z,7.80
2023-04-12T06:45:53.111Z,7.90
2023-04-12T06:48:20.713Z,7.90
2023-04-12T06:50:47.866Z,7.90
2023-04-12T06:53:15.103Z,7.90
2023-04-12T06:55:42.333Z,7.90
2023-04-12T06:58:09.498Z,7.90
2023-04-12T07:00:37.873Z,7.90
2023-04-12T07:03:05.039Z,8.00
2023-04-12T07:05:32.391Z,8.00
2023-04-12T07:07:59.491Z,8.00
2023-04-12T07:10:26.768Z,8.00
2023-04-12T07:12:53.893Z,8.10
2023-04-12T07:15:21.309Z,8.00
2023-04-12T07:17:48.559Z,8.00
2023-04-12T07:20:15.768Z,8.00
2023-04-12T07:22:43.082Z,8.10
2023-04-12T07:25:11.075Z,8.10
2023-04-12T07:27:38.235Z,8.10
2023-04-12T07:30:06.087Z,8.20
2023-04-12T07:32:33.231Z,8.10
2023-04-12T07:35:00.641Z,8.20
2023-04-12T07:37:28.002Z,8.20
2023-04-12T07:39:55.190Z,8.20
2023-04-12T07:42:22.630Z,8.20
2023-04-12T07:44:50.472Z,8.30
2023-04-12T07:47:17.654Z,8.30
2023-04-12T07:49:44.798Z,8.40
2023-04-12T07:52:11.884Z,8.40
2023-04-12T07:54:38.929Z,8.50
2023-04-12T07:57:06.195Z,8.50
2023-04-12T07:59:33.908Z,8.50
2023-04-12T08:02:01.183Z,8.40
2023-04-12T08:04:28.602Z,8.50
2023-04-12T08:06:56.323Z,8.50
2023-04-12T08:09:24.725Z,8.50
2023-04-12T08:11:52.499Z,8.50
2023-04-12T08:14:20.663Z,8.60
2023-04-12T08:16:47.907Z,8.70
2023-04-12T08:19:15.152Z,8.70
2023-04-12T08:21:42.304Z,8.70
2023-04-12T08:24:09.409Z,8.80
2023-04-12T08:26:36.623Z,8.90
2023-04-12T08:29:03.708Z,8.90
2023-04-12T08:31:31.160Z,8.90
2023-04-12T08:33:59.980Z,9.00
2023-04-12T08:36:27.893Z,9.00
2023-04-12T08:39:02.150Z,9.00
2023-04-12T08:41:29.538Z,9.10
2023-04-12T08:43:57.503Z,9.10
2023-04-12T08:46:25.954Z,9.10
2023-04-12T08:48:58.000Z,9.00
2023-04-12T08:51:25.252Z,9.00
2023-04-12T08:53:54.210Z,9.00
2023-04-12T08:56:22.854Z,9.20
2023-04-12T08:58:50.818Z,9.30
2023-04-12T09:01:20.942Z,9.50
2023-04-12T09:03:49.209Z,9.40
2023-04-12T09:09:08.051Z,9.60
2023-04-12T09:11:36.598Z,9.80
2023-04-12T09:14:03.837Z,9.70
2023-04-12T09:16:41.735Z,9.80
2023-04-12T09:19:09.620Z,9.80
2023-04-12T09:21:37.364Z,9.70
2023-04-12T09:24:11.813Z,9.70
2023-04-12T09:26:41.339Z,9.70
2023-04-12T09:29:28.012Z,9.80
2023-04-12T09:32:15.865Z,10.00
2023-04-12T09:35:00.774Z,10.10
2023-04-12T09:37:28.225Z,10.40
2023-04-12T09:40:07.386Z,10.50
2023-04-12T09:42:35.846Z,10.90
2023-04-12T09:45:25.758Z,10.90
2023-04-12T09:47:54.729Z,10.90
2023-04-12T09:50:29.766Z,11.00
2023-04-12T09:53:01.617Z,11.10
2023-04-12T09:55:32.545Z,11.00
2023-04-12T09:58:04.210Z,10.90
2023-04-12T10:00:34.443Z,10.80
2023-04-12T10:03:02.257Z,10.80
2023-04-12T10:05:30.283Z,10.80
2023-04-12T10:07:58.621Z,10.70
2023-04-12T10:10:26.241Z,10.80
2023-04-12T10:12:53.649Z,10.80
2023-04-12T10:15:22.134Z,10.90
2023-04-12T10:17:54.318Z,11.00
2023-04-12T10:20:24.192Z,10.90
2023-04-12T10:22:54.604Z,11.10
2023-04-12T10:25:27.123Z,11.00
2023-04-12T10:27:54.376Z,11.20
2023-04-12T10:30:28.783Z,11.40
2023-04-12T10:33:05.482Z,11.10
2023-04-12T10:35:53.348Z,11.60
2023-04-12T10:38:20.960Z,11.90
2023-04-12T10:41:15.498Z,11.80
2023-04-12T10:43:51.026Z,11.90
2023-04-12T10:46:39.631Z,12.10
2023-04-12T10:49:15.490Z,12.00
2023-04-12T10:52:02.009Z,11.60
2023-04-12T10:54:29.764Z,11.40
2023-04-12T10:56:58.006Z,11.40
2023-04-12T10:59:34.121Z,11.50
2023-04-12T11:02:08.428Z,11.50
2023-04-12T11:04:36.365Z,11.50
2023-04-12T11:07:12.309Z,11.40
2023-04-12T11:09:48.975Z,11.50
2023-04-12T11:12:16.875Z,11.70
2023-04-12T11:14:52.945Z,11.90
2023-04-12T11:17:22.983Z,12.10
2023-04-12T11:19:55.271Z,12.20
2023-04-12T11:22:25.591Z,12.40
2023-04-12T11:24:55.461Z,12.10
2023-04-12T11:27:24.785Z,12.10
2023-04-12T11:29:55.889Z,12.20
2023-04-12T11:32:28.526Z,12.10
2023-04-12T11:34:58.381Z,12.10
2023-04-12T11:37:27.443Z,12.20
2023-04-12T11:39:58.327Z,11.90
2023-04-12T11:42:27.081Z,11.90
2023-04-12T11:45:01.543Z,12.30
2023-04-12T11:47:30.575Z,12.20
2023-04-12T11:49:59.341Z,12.10
2023-04-12T11:52:32.390Z,11.80
2023-04-12T11:55:06.960Z,11.90
2023-04-12T11:57:35.721Z,11.70
2023-04-12T12:00:06.735Z,11.70
2023-04-12T12:02:43.113Z,11.60
2023-04-12T12:05:16.945Z,11.80
2023-04-12T12:07:44.255Z,11.70
2023-04-12T12:10:13.310Z,11.90
2023-04-12T12:12:45.097Z,11.90
2023-04-12T12:15:14.792Z,11.60
2023-04-12T12:17:41.902Z,11.70
2023-04-12T12:20:21.022Z,11.80
2023-04-12T12:22:48.502Z,11.90
2023-04-12T12:25:18.713Z,11.80
2023-04-12T12:27:48.783Z,11.70
2023-04-12T12:30:22.490Z,11.80
2023-04-12T12:32:52.617Z,11.80
2023-04-12T12:35:22.784Z,11.70
2023-04-12T12:37:52.671Z,11.70
2023-04-12T12:40:21.911Z,11.80
2023-04-12T12:42:52.131Z,11.70
2023-04-12T12:45:21.892Z,11.60
2023-04-12T12:48:00.993Z,11.60
2023-04-12T12:50:31.170Z,11.70
2023-04-12T12:53:00.983Z,11.40
2023-04-12T12:55:30.484Z,11.50
2023-04-12T13:00:29.808Z,11.60
2023-04-12T13:02:57.289Z,11.50
2023-04-12T13:05:24.744Z,11.20
2023-04-12T13:07:52.105Z,11.00
2023-04-12T13:10:19.393Z,10.90
2023-04-12T13:12:47.570Z,10.70
2023-04-12T13:17:44.738Z,10.30
2023-04-12T13:20:11.903Z,10.40
2023-04-12T13:22:39.077Z,10.40
2023-04-12T13:25:07.105Z,10.40
2023-04-12T13:27:34.206Z,10.40
2023-04-12T13:30:01.401Z,10.50
2023-04-12T13:32:28.559Z,10.50
2023-04-12T13:34:56.350Z,10.40
2023-04-12T13:37:23.564Z,10.50
2023-04-12T13:39:54.992Z,10.60
2023-04-12T13:42:23.944Z,10.60
2023-04-12T13:44:51.057Z,10.60
2023-04-12T13:47:18.501Z,10.70
2023-04-12T13:49:46.225Z,11.00
2023-04-12T13:52:13.682Z,11.10
2023-04-12T13:54:41.290Z,11.20
2023-04-12T13:57:08.442Z,11.50
2023-04-12T13:59:35.742Z,11.80
2023-04-12T14:02:03.048Z,11.80
2023-04-12T14:04:31.574Z,11.90
2023-04-12T14:06:59.663Z,11.90
2023-04-12T14:09:31.880Z,11.90
2023-04-12T14:12:00.279Z,11.90
2023-04-12T14:14:28.139Z,11.90
2023-04-12T14:16:59.178Z,11.90
2023-04-12T14:19:26.700Z,12.10
2023-04-12T14:21:54.356Z,12.30
2023-04-12T14:24:22.306Z,12.00
2023-04-12T14:26:53.566Z,11.80
2023-04-12T14:29:21.472Z,11.80
2023-04-12T14:31:48.706Z,11.80
2023-04-12T14:34:15.978Z,12.00
2023-04-12T14:36:43.079Z,12.20
2023-04-12T14:39:12.232Z,11.80
2023-04-12T14:41:41.567Z,11.60
2023-04-12T14:44:08.683Z,11.80
2023-04-12T14:46:35.892Z,12.20
2023-04-12T14:49:03.089Z,12.40
2023-04-12T14:51:30.565Z,12.20
2023-04-12T14:53:58.507Z,12.10
2023-04-12T14:56:29.586Z,11.70
2023-04-12T14:58:58.452Z,11.50
2023-04-12T15:01:26.218Z,11.40
2023-04-12T15:03:53.933Z,11.40
2023-04-12T15:06:27.515Z,11.50
2023-04-12T15:08:55.206Z,11.40
2023-04-12T15:11:27.505Z,11.40
2023-04-12T15:13:55.565Z,11.50
2023-04-12T15:16:23.206Z,11.70
2023-04-12T15:18:52.124Z,12.10
2023-04-12T15:21:19.526Z,12.30
2023-04-12T15:23:47.524Z,12.20
2023-04-12T15:26:14.845Z,12.10
2023-04-12T15:28:42.551Z,12.20
2023-04-12T15:31:12.122Z,11.90
2023-04-12T15:33:39.361Z,11.80
2023-04-12T15:36:06.901Z,11.60
2023-04-12T15:38:41.785Z,11.50
2023-04-12T15:41:09.334Z,11.30
2023-04-12T15:43:36.759Z,11.40
2023-04-12T15:46:04.111Z,11.50
2023-04-12T15:48:31.361Z,11.50
2023-04-12T15:50:58.745Z,11.30
2023-04-12T15:53:27.783Z,11.20
2023-04-12T15:55:55.355Z,11.10
2023-04-12T15:58:27.283Z,11.20
2023-04-12T16:00:54.822Z,11.20
2023-04-12T16:03:26.600Z,11.20
2023-04-12T16:05:54.925Z,11.20
2023-04-12T16:08:23.062Z,11.20
2023-04-12T16:10:51.185Z,11.10
2023-04-12T16:13:18.860Z,11.10
2023-04-12T16:15:46.958Z,11.10
2023-04-12T16:18:14.430Z,11.20
2023-04-12T16:20:41.563Z,11.00
2023-04-12T16:23:09.061Z,10.90
2023-04-12T16:25:36.450Z,10.90
2023-04-12T16:28:04.111Z,10.70
2023-04-12T16:30:35.217Z,10.90
2023-04-12T16:33:02.896Z,11.00
2023-04-12T16:35:30.080Z,11.20
2023-04-12T16:37:57.279Z,11.30
2023-04-12T16:40:24.770Z,11.00
2023-04-12T16:42:52.216Z,11.00
2023-04-12T16:45:20.547Z,11.00
2023-04-12T16:47:47.850Z,11.00
2023-04-12T16:50:15.641Z,11.00
2023-04-12T16:52:42.875Z,11.00
2023-04-12T16:55:13.799Z,11.10
2023-04-12T16:57:43.070Z,10.90
2023-04-12T17:00:23.875Z,10.90
2023-04-12T17:02:56.003Z,10.90
2023-04-12T17:05:24.976Z,10.90
2023-04-12T17:07:55.563Z,10.80
2023-04-12T17:10:24.711Z,10.80
2023-04-12T17:12:54.529Z,10.80
2023-04-12T17:15:26.780Z,10.70
2023-04-12T17:18:04.324Z,10.70
2023-04-12T17:20:32.511Z,10.70
2023-04-12T17:23:00.006Z,10.70
2023-04-12T17:25:31.571Z,10.80
2023-04-12T17:28:01.384Z,10.70
2023-04-12T17:30:29.429Z,10.70
2023-04-12T17:32:58.073Z,10.70
2023-04-12T17:35:25.261Z,10.70
2023-04-12T17:37:52.759Z,10.60
2023-04-12T17:40:20.683Z,10.50
2023-04-12T17:42:50.030Z,10.50
2023-04-12T17:45:18.714Z,10.40
2023-04-12T17:47:45.916Z,10.30
2023-04-12T17:50:13.214Z,10.30
2023-04-12T17:52:40.658Z,10.30
2023-04-12T17:55:13.066Z,10.20
2023-04-12T17:57:40.880Z,10.20
2023-04-12T18:00:12.037Z,10.10
2023-04-12T18:02:40.395Z,10.10
2023-04-12T18:05:08.136Z,10.00
2023-04-12T18:07:35.722Z,10.10
2023-04-12T18:10:03.480Z,10.00
2023-04-12T18:12:31.324Z,10.00
2023-04-12T18:14:59.008Z,9.90
2023-04-12T18:17:26.877Z,10.00
2023-04-12T18:19:54.845Z,9.90
2023-04-12T18:22:22.814Z,9.80
2023-04-12T18:24:58.769Z,9.90
2023-04-12T18:27:30.514Z,9.60
2023-04-12T18:30:46.068Z,9.50
2023-04-12T18:33:13.287Z,9.30
2023-04-12T18:35:40.581Z,9.10
2023-04-12T18:38:07.785Z,9.10
2023-04-12T18:40:38.937Z,9.00
2023-04-12T18:43:06.491Z,8.80
2023-04-12T18:45:33.705Z,8.90
2023-04-12T18:48:00.912Z,8.70
2023-04-12T18:50:28.466Z,8.70
2023-04-12T18:52:55.602Z,8.70
2023-04-12T18:55:22.748Z,8.60
2023-04-12T18:57:52.751Z,8.70
2023-04-12T19:00:22.011Z,8.70
2023-04-12T19:02:49.215Z,8.50
2023-04-12T19:05:17.686Z,8.50
2023-04-12T19:07:44.959Z,8.50
2023-04-12T19:10:12.849Z,8.50
2023-04-12T19:12:40.147Z,8.30
2023-04-12T19:15:08.713Z,8.50
2023-04-12T19:17:39.595Z,8.50
2023-04-12T19:20:11.434Z,8.50
2023-04-12T19:22:38.596Z,8.50
2023-04-12T19:25:06.356Z,8.40
2023-04-12T19:27:33.478Z,8.40
2023-04-12T19:30:00.733Z,8.40
2023-04-12T19:32:28.745Z,8.30
2023-04-12T19:34:56.632Z,8.20
2023-04-12T19:37:24.093Z,8.20
2023-04-12T19:39:51.217Z,8.20
2023-04-12T19:42:18.564Z,8.30
2023-04-12T19:44:46.103Z,8.30
2023-04-12T19:47:13.265Z,8.30
2023-04-12T19:49:40.482Z,8.20
2023-04-12T19:52:07.649Z,8.20
2023-04-12T19:54:34.790Z,8.20
2023-04-12T19:57:05.280Z,8.20
2023-04-12T19:59:34.559Z,8.20
2023-04-12T20:02:01.777Z,8.10
2023-04-12T20:04:29.004Z,8.10
2023-04-12T20:06:56.111Z,8.10
2023-04-12T20:09:23.653Z,8.00
2023-04-12T20:11:50.858Z,8.00
2023-04-12T20:14:18.645Z,8.00
2023-04-12T20:16:45.844Z,7.90
2023-04-12T20:19:13.476Z,7.80
2023-04-12T20:21:40.638Z,7.80
2023-04-12T20:24:09.072Z,7.80
2023-04-12T20:26:36.635Z,7.90
2023-04-12T20:29:08.116Z,7.70
2023-04-12T20:31:35.385Z,7.70
2023-04-12T20:34:02.603Z,7.60
2023-04-12T20:36:35.234Z,7.50
2023-04-12T20:39:05.701Z,7.50
2023-04-12T20:41:38.293Z,7.50
2023-04-12T20:44:05.394Z,7.50
2023-04-12T20:46:36.790Z,7.30
2023-04-12T20:49:06.804Z,7.20
2023-04-12T20:51:33.907Z,7.30
2023-04-12T20:54:02.347Z,7.20
2023-04-12T20:56:29.437Z,7.20
2023-04-12T20:58:56.914Z,7.20
2023-04-12T21:01:24.304Z,7.30
2023-04-12T21:03:55.920Z,7.20
2023-04-12T21:06:23.086Z,7.30
2023-04-12T21:08:53.894Z,7.20
2023-04-12T21:11:21.726Z,7.10
2023-04-12T21:13:48.942Z,7.00
2023-04-12T21:16:16.283Z,7.00
2023-04-12T21:18:43.523Z,7.00
2023-04-12T21:21:10.812Z,6.90
2023-04-12T21:23:38.007Z,6.80
2023-04-12T21:26:05.742Z,7.10
2023-04-12T21:28:32.966Z,7.10
2023-04-12T21:31:00.200Z,7.20
2023-04-12T21:33:27.551Z,6.80
2023-04-12T21:35:55.773Z,6.80
2023-04-12T21:38:23.795Z,6.90
2023-04-12T21:40:51.898Z,6.90
2023-04-12T21:43:19.223Z,6.90
2023-04-12T21:45:46.928Z,6.90
2023-04-12T21:48:14.776Z,6.90
2023-04-12T21:50:42.452Z,6.90
2023-04-12T21:53:09.828Z,6.90
2023-04-12T21:55:40.258Z,6.80
2023-04-12T21:58:07.453Z,6.70
2023-04-12T22:00:35.177Z,6.80
2023-04-12T22:03:02.664Z,6.70
2023-04-12T22:05:30.847Z,6.90
2023-04-12T22:07:58.516Z,7.00
2023-04-12T22:10:26.313Z,7.10
2023-04-12T22:12:54.163Z,7.00
2023-04-12T22:15:21.901Z,6.90
2023-04-12T22:17:49.356Z,7.00
2023-04-12T22:20:16.679Z,6.90
2023-04-12T22:22:44.313Z,6.90
2023-04-12T22:25:14.937Z,6.80
2023-04-12T22:27:46.611Z,6.80
2023-04-12T22:30:13.956Z,6.70
2023-04-12T22:32:41.393Z,6.60
2023-04-12T22:35:10.377Z,6.60
2023-04-12T22:37:41.590Z,6.60
2023-04-12T22:40:12.588Z,6.70
2023-04-12T22:42:46.816Z,6.70
2023-04-12T22:45:15.979Z,6.90
2023-04-12T22:47:44.669Z,6.90
2023-04-12T22:50:13.092Z,6.90
2023-04-12T22:52:40.891Z,6.80
2023-04-12T22:55:09.706Z,6.90
2023-04-12T22:57:37.742Z,7.00
2023-04-12T23:00:06.298Z,7.10
2023-04-12T23:02:34.167Z,7.10
2023-04-12T23:05:02.876Z,7.10
2023-04-12T23:07:30.358Z,7.20
2023-04-12T23:09:58.395Z,7.20
2023-04-12T23:12:25.832Z,7.20
2023-04-12T23:14:55.839Z,6.90
2023-04-12T23:17:23.605Z,6.80
2023-04-12T23:19:52.031Z,6.80
2023-04-12T23:22:55.296Z,6.70
2023-04-12T23:25:39.753Z,6.50
2023-04-12T23:28:14.985Z,6.40
2023-04-12T23:30:53.025Z,6.50
2023-04-12T23:33:22.167Z,6.40
2023-04-12T23:35:54.671Z,6.40
2023-04-12T23:38:24.641Z,6.40
2023-04-12T23:40:54.926Z,6.50
2023-04-12T23:43:23.702Z,6.50
2023-04-12T23:45:53.064Z,6.40
2023-04-12T23:48:22.020Z,6.30
2023-04-12T23:50:49.414Z,6.20
2023-04-12T23:53:17.498Z,6.30
2023-04-12T23:55:49.112Z,6.20
2023-04-12T23:58:18.299Z,6.10
